sensor_id;sensor_type;location;lat;lon;timestamp;temperature;humidity
7958;DHT22;4024;52.172;5.378;2022-08-21T00:00:49;19.20;99.90
7958;DHT22;4024;52.172;5.378;2022-08-21T00:03:19;19.10;99.90
7958;DHT22;4024;52.172;5.378;2022-08-21T00:05:49;19.10;99.90
7958;DHT22;4024;52.172;5.378;2022-08-21T00:08:16;19.10;99.90
7958;DHT22;4024;52.172;5.378;2022-08-21T00:10:43;19.10;99.90
7958;DHT22;4024;52.172;5.378;2022-08-21T00:13:10;19.10;99.90
7958;DHT22;4024;52.172;5.378;2022-08-21T00:15:41;19.00;99.90
7958;DHT22;4024;52.172;5.378;2022-08-21T00:18:08;19.00;99.90
7958;DHT22;4024;52.172;5.378;2022-08-21T00:20:38;19.00;99.90
7958;DHT22;4024;52.172;5.378;2022-08-21T00:23:04;19.00;99.90
7958;DHT22;4024;52.172;5.378;2022-08-21T00:25:31;18.90;99.90
7958;DHT22;4024;52.172;5.378;2022-08-21T00:28:17;18.90;99.90
7958;DHT22;4024;52.172;5.378;2022-08-21T00:30:43;18.90;99.90
7958;DHT22;4024;52.172;5.378;2022-08-21T00:33:10;18.90;99.90
7958;DHT22;4024;52.172;5.378;2022-08-21T00:35:38;18.90;99.90
7958;DHT22;4024;52.172;5.378;2022-08-21T00:38:05;18.80;99.90
7958;DHT22;4024;52.172;5.378;2022-08-21T00:40:59;18.80;99.90
7958;DHT22;4024;52.172;5.378;2022-08-21T00:43:31;18.80;99.90
7958;DHT22;4024;52.172;5.378;2022-08-21T00:45:57;18.80;99.90
7958;DHT22;4024;52.172;5.378;2022-08-21T00:48:24;18.80;99.90
7958;DHT22;4024;52.172;5.378;2022-08-21T00:50:58;18.70;99.90
7958;DHT22;4024;52.172;5.378;2022-08-21T00:53:29;18.70;99.90
7958;DHT22;4024;52.172;5.378;2022-08-21T00:55:58;18.70;99.90
7958;DHT22;4024;52.172;5.378;2022-08-21T00:58:26;18.70;99.90
7958;DHT22;4024;52.172;5.378;2022-08-21T01:00:53;18.70;99.90
7958;DHT22;4024;52.172;5.378;2022-08-21T01:03:22;18.70;99.90
7958;DHT22;4024;52.172;5.378;2022-08-21T01:05:49;18.60;99.90
7958;DHT22;4024;52.172;5.378;2022-08-21T01:08:16;18.60;99.90
7958;DHT22;4024;52.172;5.378;2022-08-21T01:10:43;18.60;99.90
7958;DHT22;4024;52.172;5.378;2022-08-21T01:13:11;18.60;99.90
7958;DHT22;4024;52.172;5.378;2022-08-21T01:15:42;18.50;99.90
7958;DHT22;4024;52.172;5.378;2022-08-21T01:18:11;18.50;99.90
7958;DHT22;4024;52.172;5.378;2022-08-21T01:20:38;18.50;99.90
7958;DHT22;4024;52.172;5.378;2022-08-21T01:23:06;18.50;99.90
7958;DHT22;4024;52.172;5.378;2022-08-21T01:25:33;18.50;99.90
7958;DHT22;4024;52.172;5.378;2022-08-21T01:28:02;18.50;99.90
7958;DHT22;4024;52.172;5.378;2022-08-21T01:30:31;18.50;99.90
7958;DHT22;4024;52.172;5.378;2022-08-21T01:32:59;18.50;99.90
7958;DHT22;4024;52.172;5.378;2022-08-21T01:35:25;18.40;99.90
7958;DHT22;4024;52.172;5.378;2022-08-21T01:37:50;18.40;99.90
7958;DHT22;4024;52.172;5.378;2022-08-21T01:40:17;18.40;99.90
7958;DHT22;4024;52.172;5.378;2022-08-21T01:42:44;18.40;99.90
7958;DHT22;4024;52.172;5.378;2022-08-21T01:45:10;18.30;99.90
7958;DHT22;4024;52.172;5.378;2022-08-21T01:47:37;18.30;99.90
7958;DHT22;4024;52.172;5.378;2022-08-21T01:50:09;18.30;99.90
7958;DHT22;4024;52.172;5.378;2022-08-21T01:52:38;18.30;99.90
7958;DHT22;4024;52.172;5.378;2022-08-21T01:55:09;18.30;99.90
7958;DHT22;4024;52.172;5.378;2022-08-21T01:57:36;18.20;99.90
7958;DHT22;4024;52.172;5.378;2022-08-21T02:00:07;18.30;99.90
7958;DHT22;4024;52.172;5.378;2022-08-21T02:02:34;18.30;99.90
7958;DHT22;4024;52.172;5.378;2022-08-21T02:05:00;18.20;99.90
7958;DHT22;4024;52.172;5.378;2022-08-21T02:07:37;18.20;99.90
7958;DHT22;4024;52.172;5.378;2022-08-21T02:10:07;18.20;99.90
7958;DHT22;4024;52.172;5.378;2022-08-21T02:12:40;18.10;99.90
7958;DHT22;4024;52.172;5.378;2022-08-21T02:15:07;18.20;99.90
7958;DHT22;4024;52.172;5.378;2022-08-21T02:17:49;18.20;99.90
7958;DHT22;4024;52.172;5.378;2022-08-21T02:20:22;18.10;99.90
7958;DHT22;4024;52.172;5.378;2022-08-21T02:22:49;18.10;99.90
7958;DHT22;4024;52.172;5.378;2022-08-21T02:25:15;18.10;99.90
7958;DHT22;4024;52.172;5.378;2022-08-21T02:27:44;18.00;99.90
7958;DHT22;4024;52.172;5.378;2022-08-21T02:30:32;18.10;99.90
7958;DHT22;4024;52.172;5.378;2022-08-21T02:33:01;18.00;99.90
7958;DHT22;4024;52.172;5.378;2022-08-21T02:35:27;18.00;99.90
7958;DHT22;4024;52.172;5.378;2022-08-21T02:37:56;18.00;99.90
7958;DHT22;4024;52.172;5.378;2022-08-21T02:40:24;17.90;99.90
7958;DHT22;4024;52.172;5.378;2022-08-21T02:42:51;18.00;99.90
7958;DHT22;4024;52.172;5.378;2022-08-21T02:45:18;17.90;99.90
7958;DHT22;4024;52.172;5.378;2022-08-21T02:47:52;17.90;99.90
7958;DHT22;4024;52.172;5.378;2022-08-21T02:50:21;17.90;99.90
7958;DHT22;4024;52.172;5.378;2022-08-21T02:52:48;17.90;99.90
7958;DHT22;4024;52.172;5.378;2022-08-21T02:55:14;17.90;99.90
7958;DHT22;4024;52.172;5.378;2022-08-21T02:57:41;17.90;99.90
7958;DHT22;4024;52.172;5.378;2022-08-21T03:00:07;17.80;99.90
7958;DHT22;4024;52.172;5.378;2022-08-21T03:02:35;17.90;99.90
7958;DHT22;4024;52.172;5.378;2022-08-21T03:05:00;17.80;99.90
7958;DHT22;4024;52.172;5.378;2022-08-21T03:07:26;17.80;99.90
7958;DHT22;4024;52.172;5.378;2022-08-21T03:09:52;17.80;99.90
7958;DHT22;4024;52.172;5.378;2022-08-21T03:12:21;17.80;99.90
7958;DHT22;4024;52.172;5.378;2022-08-21T03:14:47;17.80;99.90
7958;DHT22;4024;52.172;5.378;2022-08-21T03:17:13;17.80;99.90
7958;DHT22;4024;52.172;5.378;2022-08-21T03:19:38;17.70;99.90
7958;DHT22;4024;52.172;5.378;2022-08-21T03:22:04;17.70;99.90
7958;DHT22;4024;52.172;5.378;2022-08-21T03:24:30;17.70;99.90
7958;DHT22;4024;52.172;5.378;2022-08-21T03:26:56;17.70;99.90
7958;DHT22;4024;52.172;5.378;2022-08-21T03:29:22;17.70;99.90
7958;DHT22;4024;52.172;5.378;2022-08-21T03:31:48;17.70;99.90
7958;DHT22;4024;52.172;5.378;2022-08-21T03:34:14;17.70;99.90
7958;DHT22;4024;52.172;5.378;2022-08-21T03:36:40;17.60;99.90
7958;DHT22;4024;52.172;5.378;2022-08-21T03:39:05;17.70;99.90
7958;DHT22;4024;52.172;5.378;2022-08-21T03:41:31;17.60;99.90
7958;DHT22;4024;52.172;5.378;2022-08-21T03:43:57;17.70;99.90
7958;DHT22;4024;52.172;5.378;2022-08-21T03:46:24;17.60;99.90
7958;DHT22;4024;52.172;5.378;2022-08-21T03:48:50;17.60;99.90
7958;DHT22;4024;52.172;5.378;2022-08-21T03:51:18;17.60;99.90
7958;DHT22;4024;52.172;5.378;2022-08-21T03:53:44;17.60;99.90
7958;DHT22;4024;52.172;5.378;2022-08-21T03:56:10;17.60;99.90
7958;DHT22;4024;52.172;5.378;2022-08-21T03:58:37;17.60;99.90
7958;DHT22;4024;52.172;5.378;2022-08-21T04:01:25;17.60;99.90
7958;DHT22;4024;52.172;5.378;2022-08-21T04:03:50;17.60;99.90
7958;DHT22;4024;52.172;5.378;2022-08-21T04:06:15;17.60;99.90
7958;DHT22;4024;52.172;5.378;2022-08-21T04:08:41;17.60;99.90
7958;DHT22;4024;52.172;5.378;2022-08-21T04:11:08;17.60;99.90
7958;DHT22;4024;52.172;5.378;2022-08-21T04:13:36;17.60;99.90
7958;DHT22;4024;52.172;5.378;2022-08-21T04:16:02;17.60;99.90
7958;DHT22;4024;52.172;5.378;2022-08-21T04:18:28;17.50;99.90
7958;DHT22;4024;52.172;5.378;2022-08-21T04:20:56;17.50;99.90
7958;DHT22;4024;52.172;5.378;2022-08-21T04:23:23;17.50;99.90
7958;DHT22;4024;52.172;5.378;2022-08-21T04:25:50;17.50;99.90
7958;DHT22;4024;52.172;5.378;2022-08-21T04:28:16;17.50;99.90
7958;DHT22;4024;52.172;5.378;2022-08-21T04:30:41;17.50;99.90
7958;DHT22;4024;52.172;5.378;2022-08-21T04:33:07;17.40;99.90
7958;DHT22;4024;52.172;5.378;2022-08-21T04:35:33;17.40;99.90
7958;DHT22;4024;52.172;5.378;2022-08-21T04:37:59;17.40;99.90
7958;DHT22;4024;52.172;5.378;2022-08-21T04:40:26;17.40;99.90
7958;DHT22;4024;52.172;5.378;2022-08-21T04:43:00;17.40;99.90
7958;DHT22;4024;52.172;5.378;2022-08-21T04:45:33;17.30;99.90
7958;DHT22;4024;52.172;5.378;2022-08-21T04:48:01;17.30;99.90
7958;DHT22;4024;52.172;5.378;2022-08-21T04:50:30;17.30;99.90
7958;DHT22;4024;52.172;5.378;2022-08-21T04:52:56;17.30;99.90
7958;DHT22;4024;52.172;5.378;2022-08-21T04:55:24;17.30;99.90
7958;DHT22;4024;52.172;5.378;2022-08-21T04:57:50;17.30;99.90
7958;DHT22;4024;52.172;5.378;2022-08-21T05:00:19;17.20;99.90
7958;DHT22;4024;52.172;5.378;2022-08-21T05:02:45;17.30;99.90
7958;DHT22;4024;52.172;5.378;2022-08-21T05:05:13;17.30;99.90
7958;DHT22;4024;52.172;5.378;2022-08-21T05:07:39;17.30;99.90
7958;DHT22;4024;52.172;5.378;2022-08-21T05:10:05;17.20;99.90
7958;DHT22;4024;52.172;5.378;2022-08-21T05:12:33;17.20;99.90
7958;DHT22;4024;52.172;5.378;2022-08-21T05:15:01;17.30;99.90
7958;DHT22;4024;52.172;5.378;2022-08-21T05:17:27;17.20;99.90
7958;DHT22;4024;52.172;5.378;2022-08-21T05:19:52;17.20;99.90
7958;DHT22;4024;52.172;5.378;2022-08-21T05:22:22;17.30;99.90
7958;DHT22;4024;52.172;5.378;2022-08-21T05:24:50;17.30;99.90
7958;DHT22;4024;52.172;5.378;2022-08-21T05:27:15;17.30;99.90
7958;DHT22;4024;52.172;5.378;2022-08-21T05:29:42;17.30;99.90
7958;DHT22;4024;52.172;5.378;2022-08-21T05:32:11;17.40;99.90
7958;DHT22;4024;52.172;5.378;2022-08-21T05:34:37;17.40;99.90
7958;DHT22;4024;52.172;5.378;2022-08-21T05:37:03;17.40;99.90
7958;DHT22;4024;52.172;5.378;2022-08-21T05:39:33;17.40;99.90
7958;DHT22;4024;52.172;5.378;2022-08-21T05:41:58;17.40;99.90
7958;DHT22;4024;52.172;5.378;2022-08-21T05:44:24;17.50;99.90
7958;DHT22;4024;52.172;5.378;2022-08-21T05:46:50;17.50;99.90
7958;DHT22;4024;52.172;5.378;2022-08-21T05:49:16;17.60;99.90
7958;DHT22;4024;52.172;5.378;2022-08-21T05:51:41;17.60;99.90
7958;DHT22;4024;52.172;5.378;2022-08-21T05:54:08;17.70;99.90
7958;DHT22;4024;52.172;5.378;2022-08-21T05:56:33;17.70;99.90
7958;DHT22;4024;52.172;5.378;2022-08-21T05:58:59;17.80;99.90
7958;DHT22;4024;52.172;5.378;2022-08-21T06:01:25;17.80;99.90
7958;DHT22;4024;52.172;5.378;2022-08-21T06:03:51;17.90;99.90
7958;DHT22;4024;52.172;5.378;2022-08-21T06:06:16;17.90;99.90
7958;DHT22;4024;52.172;5.378;2022-08-21T06:08:43;18.00;99.90
7958;DHT22;4024;52.172;5.378;2022-08-21T06:11:09;18.00;99.90
7958;DHT22;4024;52.172;5.378;2022-08-21T06:13:36;18.10;99.90
7958;DHT22;4024;52.172;5.378;2022-08-21T06:16:05;18.10;99.90
7958;DHT22;4024;52.172;5.378;2022-08-21T06:18:32;18.20;99.90
7958;DHT22;4024;52.172;5.378;2022-08-21T06:20:58;18.20;99.90
7958;DHT22;4024;52.172;5.378;2022-08-21T06:23:24;18.30;99.90
7958;DHT22;4024;52.172;5.378;2022-08-21T06:25:49;18.30;99.90
7958;DHT22;4024;52.172;5.378;2022-08-21T06:28:16;18.40;99.90
7958;DHT22;4024;52.172;5.378;2022-08-21T06:30:41;18.40;99.90
7958;DHT22;4024;52.172;5.378;2022-08-21T06:33:08;18.50;99.90
7958;DHT22;4024;52.172;5.378;2022-08-21T06:35:34;18.50;99.90
7958;DHT22;4024;52.172;5.378;2022-08-21T06:38:00;18.50;99.90
7958;DHT22;4024;52.172;5.378;2022-08-21T06:40:28;18.60;99.90
7958;DHT22;4024;52.172;5.378;2022-08-21T06:42:54;18.60;99.90
7958;DHT22;4024;52.172;5.378;2022-08-21T06:45:21;18.60;99.90
7958;DHT22;4024;52.172;5.378;2022-08-21T06:47:46;18.70;99.90
7958;DHT22;4024;52.172;5.378;2022-08-21T06:50:12;18.80;99.90
7958;DHT22;4024;52.172;5.378;2022-08-21T06:52:38;18.80;99.90
7958;DHT22;4024;52.172;5.378;2022-08-21T06:55:09;18.80;99.90
7958;DHT22;4024;52.172;5.378;2022-08-21T06:57:35;18.90;99.90
7958;DHT22;4024;52.172;5.378;2022-08-21T07:00:04;18.90;99.90
7958;DHT22;4024;52.172;5.378;2022-08-21T07:02:30;18.90;99.90
7958;DHT22;4024;52.172;5.378;2022-08-21T07:04:56;19.00;99.90
7958;DHT22;4024;52.172;5.378;2022-08-21T07:07:22;19.10;99.90
7958;DHT22;4024;52.172;5.378;2022-08-21T07:09:48;19.10;99.90
7958;DHT22;4024;52.172;5.378;2022-08-21T07:12:14;19.20;99.90
7958;DHT22;4024;52.172;5.378;2022-08-21T07:14:39;19.20;99.90
7958;DHT22;4024;52.172;5.378;2022-08-21T07:17:05;19.20;99.90
7958;DHT22;4024;52.172;5.378;2022-08-21T07:19:31;19.30;99.90
7958;DHT22;4024;52.172;5.378;2022-08-21T07:22:10;19.40;99.90
7958;DHT22;4024;52.172;5.378;2022-08-21T07:24:35;19.40;99.90
7958;DHT22;4024;52.172;5.378;2022-08-21T07:27:01;19.50;99.90
7958;DHT22;4024;52.172;5.378;2022-08-21T07:29:27;19.50;99.90
7958;DHT22;4024;52.172;5.378;2022-08-21T07:31:52;19.50;99.90
7958;DHT22;4024;52.172;5.378;2022-08-21T07:34:18;19.60;99.90
7958;DHT22;4024;52.172;5.378;2022-08-21T07:36:44;19.70;99.90
7958;DHT22;4024;52.172;5.378;2022-08-21T07:39:19;19.70;99.90
7958;DHT22;4024;52.172;5.378;2022-08-21T07:41:44;19.80;99.90
7958;DHT22;4024;52.172;5.378;2022-08-21T07:44:10;19.90;99.90
7958;DHT22;4024;52.172;5.378;2022-08-21T07:46:45;19.90;99.90
7958;DHT22;4024;52.172;5.378;2022-08-21T07:49:10;20.00;99.90
7958;DHT22;4024;52.172;5.378;2022-08-21T07:51:36;20.00;99.90
7958;DHT22;4024;52.172;5.378;2022-08-21T07:54:02;20.10;99.90
7958;DHT22;4024;52.172;5.378;2022-08-21T07:56:36;20.20;99.90
7958;DHT22;4024;52.172;5.378;2022-08-21T07:59:02;20.20;99.90
7958;DHT22;4024;52.172;5.378;2022-08-21T08:01:28;20.30;99.90
7958;DHT22;4024;52.172;5.378;2022-08-21T08:03:54;20.30;99.90
7958;DHT22;4024;52.172;5.378;2022-08-21T08:06:20;20.40;99.90
7958;DHT22;4024;52.172;5.378;2022-08-21T08:08:46;20.50;99.90
7958;DHT22;4024;52.172;5.378;2022-08-21T08:11:18;20.60;99.90
7958;DHT22;4024;52.172;5.378;2022-08-21T08:13:51;20.70;99.90
7958;DHT22;4024;52.172;5.378;2022-08-21T08:16:18;20.70;99.90
7958;DHT22;4024;52.172;5.378;2022-08-21T08:18:45;20.70;99.90
7958;DHT22;4024;52.172;5.378;2022-08-21T08:21:12;20.80;99.90
7958;DHT22;4024;52.172;5.378;2022-08-21T08:23:49;20.90;99.90
7958;DHT22;4024;52.172;5.378;2022-08-21T08:26:17;20.90;99.90
7958;DHT22;4024;52.172;5.378;2022-08-21T08:28:43;21.00;99.90
7958;DHT22;4024;52.172;5.378;2022-08-21T08:31:09;21.10;99.90
7958;DHT22;4024;52.172;5.378;2022-08-21T08:33:35;21.10;99.90
7958;DHT22;4024;52.172;5.378;2022-08-21T08:36:30;21.20;99.90
7958;DHT22;4024;52.172;5.378;2022-08-21T08:38:47;21.30;99.90
7958;DHT22;4024;52.172;5.378;2022-08-21T08:41:19;21.30;99.90
7958;DHT22;4024;52.172;5.378;2022-08-21T08:43:54;21.50;99.90
7958;DHT22;4024;52.172;5.378;2022-08-21T08:46:36;21.50;99.90
7958;DHT22;4024;52.172;5.378;2022-08-21T08:49:13;21.50;99.90
7958;DHT22;4024;52.172;5.378;2022-08-21T08:51:51;21.70;99.90
7958;DHT22;4024;52.172;5.378;2022-08-21T08:54:33;21.80;99.90
7958;DHT22;4024;52.172;5.378;2022-08-21T08:57:02;21.90;99.90
7958;DHT22;4024;52.172;5.378;2022-08-21T08:59:44;21.90;99.90
7958;DHT22;4024;52.172;5.378;2022-08-21T09:02:13;22.10;99.90
7958;DHT22;4024;52.172;5.378;2022-08-21T09:04:40;22.10;99.90
7958;DHT22;4024;52.172;5.378;2022-08-21T09:13:07;22.40;99.90
7958;DHT22;4024;52.172;5.378;2022-08-21T09:21:09;22.60;99.90
7958;DHT22;4024;52.172;5.378;2022-08-21T09:26:25;22.80;99.90
7958;DHT22;4024;52.172;5.378;2022-08-21T09:28:54;22.90;99.90
7958;DHT22;4024;52.172;5.378;2022-08-21T09:31:30;23.00;99.90
7958;DHT22;4024;52.172;5.378;2022-08-21T09:34:24;23.10;99.90
7958;DHT22;4024;52.172;5.378;2022-08-21T09:36:50;23.20;99.90
7958;DHT22;4024;52.172;5.378;2022-08-21T09:39:32;23.30;99.90
7958;DHT22;4024;52.172;5.378;2022-08-21T09:42:04;23.50;99.90
7958;DHT22;4024;52.172;5.378;2022-08-21T09:44:33;23.60;99.90
7958;DHT22;4024;52.172;5.378;2022-08-21T09:47:01;23.70;99.90
7958;DHT22;4024;52.172;5.378;2022-08-21T09:49:33;23.80;99.90
7958;DHT22;4024;52.172;5.378;2022-08-21T09:52:00;24.00;99.90
7958;DHT22;4024;52.172;5.378;2022-08-21T09:54:38;24.10;99.90
7958;DHT22;4024;52.172;5.378;2022-08-21T09:59:52;24.20;99.90
7958;DHT22;4024;52.172;5.378;2022-08-21T10:02:31;24.30;99.90
7958;DHT22;4024;52.172;5.378;2022-08-21T10:07:43;24.40;99.90
7958;DHT22;4024;52.172;5.378;2022-08-21T10:10:18;24.40;99.90
7958;DHT22;4024;52.172;5.378;2022-08-21T10:13:12;24.50;99.90
7958;DHT22;4024;52.172;5.378;2022-08-21T10:18:47;24.60;99.90
7958;DHT22;4024;52.172;5.378;2022-08-21T10:24:25;24.60;99.90
7958;DHT22;4024;52.172;5.378;2022-08-21T10:35:14;24.70;99.90
7958;DHT22;4024;52.172;5.378;2022-08-21T10:40:37;24.80;99.90
7958;DHT22;4024;52.172;5.378;2022-08-21T10:48:51;24.90;99.90
7958;DHT22;4024;52.172;5.378;2022-08-21T10:51:46;24.90;99.90
7958;DHT22;4024;52.172;5.378;2022-08-21T10:57:02;25.00;99.90
7958;DHT22;4024;52.172;5.378;2022-08-21T10:59:47;25.10;99.90
7958;DHT22;4024;52.172;5.378;2022-08-21T11:02:21;25.10;99.90
7958;DHT22;4024;52.172;5.378;2022-08-21T11:05:01;25.20;99.90
7958;DHT22;4024;52.172;5.378;2022-08-21T11:07:38;25.30;99.90
7958;DHT22;4024;52.172;5.378;2022-08-21T11:10:16;25.30;99.90
7958;DHT22;4024;52.172;5.378;2022-08-21T11:18:32;25.50;99.90
7958;DHT22;4024;52.172;5.378;2022-08-21T11:26:49;25.80;99.90
7958;DHT22;4024;52.172;5.378;2022-08-21T11:29:23;25.80;99.90
7958;DHT22;4024;52.172;5.378;2022-08-21T11:43:04;25.90;99.90
7958;DHT22;4024;52.172;5.378;2022-08-21T11:45:59;25.90;99.90
7958;DHT22;4024;52.172;5.378;2022-08-21T11:51:20;25.90;99.90
7958;DHT22;4024;52.172;5.378;2022-08-21T11:54:06;25.90;99.90
7958;DHT22;4024;52.172;5.378;2022-08-21T11:56:37;25.80;99.90
7958;DHT22;4024;52.172;5.378;2022-08-21T11:59:39;25.80;99.90
7958;DHT22;4024;52.172;5.378;2022-08-21T12:02:13;25.80;99.90
7958;DHT22;4024;52.172;5.378;2022-08-21T12:04:56;25.80;99.90
7958;DHT22;4024;52.172;5.378;2022-08-21T12:07:38;25.80;99.90
7958;DHT22;4024;52.172;5.378;2022-08-21T12:10:14;25.80;99.90
7958;DHT22;4024;52.172;5.378;2022-08-21T12:12:42;25.90;99.90
7958;DHT22;4024;52.172;5.378;2022-08-21T12:15:26;25.90;99.90
7958;DHT22;4024;52.172;5.378;2022-08-21T12:17:59;25.90;99.90
7958;DHT22;4024;52.172;5.378;2022-08-21T12:20:42;25.90;99.90
7958;DHT22;4024;52.172;5.378;2022-08-21T12:25:43;26.00;99.90
7958;DHT22;4024;52.172;5.378;2022-08-21T12:28:23;26.00;99.90
7958;DHT22;4024;52.172;5.378;2022-08-21T12:30:49;26.00;99.90
7958;DHT22;4024;52.172;5.378;2022-08-21T12:33:39;26.10;99.90
7958;DHT22;4024;52.172;5.378;2022-08-21T12:36:15;26.20;99.90
7958;DHT22;4024;52.172;5.378;2022-08-21T12:39:01;26.20;99.90
7958;DHT22;4024;52.172;5.378;2022-08-21T12:41:31;26.20;99.90
7958;DHT22;4024;52.172;5.378;2022-08-21T12:44:07;26.30;99.90
7958;DHT22;4024;52.172;5.378;2022-08-21T12:46:51;26.30;99.90
7958;DHT22;4024;52.172;5.378;2022-08-21T12:49:27;26.30;99.90
7958;DHT22;4024;52.172;5.378;2022-08-21T12:52:25;26.40;99.90
7958;DHT22;4024;52.172;5.378;2022-08-21T12:54:53;26.50;99.90
7958;DHT22;4024;52.172;5.378;2022-08-21T12:57:22;26.50;99.90
7958;DHT22;4024;52.172;5.378;2022-08-21T13:02:24;26.50;99.90
7958;DHT22;4024;52.172;5.378;2022-08-21T13:04:52;26.50;99.90
7958;DHT22;4024;52.172;5.378;2022-08-21T13:07:31;26.50;99.90
7958;DHT22;4024;52.172;5.378;2022-08-21T13:10:06;26.40;99.90
7958;DHT22;4024;52.172;5.378;2022-08-21T13:12:33;26.50;99.90
7958;DHT22;4024;52.172;5.378;2022-08-21T13:15:05;26.50;99.90
7958;DHT22;4024;52.172;5.378;2022-08-21T13:17:35;26.50;99.90
7958;DHT22;4024;52.172;5.378;2022-08-21T13:20:09;26.50;99.90
7958;DHT22;4024;52.172;5.378;2022-08-21T13:22:43;26.50;99.90
7958;DHT22;4024;52.172;5.378;2022-08-21T13:25:19;26.60;99.90
7958;DHT22;4024;52.172;5.378;2022-08-21T13:28:04;26.60;99.90
7958;DHT22;4024;52.172;5.378;2022-08-21T13:30:29;26.60;99.90
7958;DHT22;4024;52.172;5.378;2022-08-21T13:32:59;26.70;99.90
7958;DHT22;4024;52.172;5.378;2022-08-21T13:35:35;26.70;99.90
7958;DHT22;4024;52.172;5.378;2022-08-21T13:38:02;26.70;99.90
7958;DHT22;4024;52.172;5.378;2022-08-21T13:40:40;26.80;99.90
7958;DHT22;4024;52.172;5.378;2022-08-21T13:43:12;26.70;99.90
7958;DHT22;4024;52.172;5.378;2022-08-21T13:45:43;26.80;99.90
7958;DHT22;4024;52.172;5.378;2022-08-21T13:48:09;26.70;99.90
7958;DHT22;4024;52.172;5.378;2022-08-21T13:50:36;26.70;99.90
7958;DHT22;4024;52.172;5.378;2022-08-21T13:53:06;26.80;99.90
7958;DHT22;4024;52.172;5.378;2022-08-21T13:55:42;26.80;99.90
7958;DHT22;4024;52.172;5.378;2022-08-21T13:58:09;26.90;99.90
7958;DHT22;4024;52.172;5.378;2022-08-21T14:00:45;26.90;99.90
7958;DHT22;4024;52.172;5.378;2022-08-21T14:03:37;27.00;99.90
7958;DHT22;4024;52.172;5.378;2022-08-21T14:06:02;27.00;99.90
7958;DHT22;4024;52.172;5.378;2022-08-21T14:08:35;27.10;99.90
7958;DHT22;4024;52.172;5.378;2022-08-21T14:11:03;27.10;99.90
7958;DHT22;4024;52.172;5.378;2022-08-21T14:13:37;27.20;99.90
7958;DHT22;4024;52.172;5.378;2022-08-21T14:18:47;27.10;99.90
7958;DHT22;4024;52.172;5.378;2022-08-21T14:21:13;27.20;99.90
7958;DHT22;4024;52.172;5.378;2022-08-21T14:23:39;27.20;99.90
7958;DHT22;4024;52.172;5.378;2022-08-21T14:26:06;27.20;99.90
7958;DHT22;4024;52.172;5.378;2022-08-21T14:28:40;27.20;99.90
7958;DHT22;4024;52.172;5.378;2022-08-21T14:31:21;27.20;99.90
7958;DHT22;4024;52.172;5.378;2022-08-21T14:33:47;27.10;99.90
7958;DHT22;4024;52.172;5.378;2022-08-21T14:36:14;27.10;99.90
7958;DHT22;4024;52.172;5.378;2022-08-21T14:38:40;27.10;99.90
7958;DHT22;4024;52.172;5.378;2022-08-21T14:41:18;27.10;99.90
7958;DHT22;4024;52.172;5.378;2022-08-21T14:43:46;27.00;99.90
7958;DHT22;4024;52.172;5.378;2022-08-21T14:46:13;27.00;99.90
7958;DHT22;4024;52.172;5.378;2022-08-21T14:48:39;27.00;99.90
7958;DHT22;4024;52.172;5.378;2022-08-21T14:51:05;27.00;99.90
7958;DHT22;4024;52.172;5.378;2022-08-21T14:53:32;27.00;99.90
7958;DHT22;4024;52.172;5.378;2022-08-21T14:55:58;26.90;99.90
7958;DHT22;4024;52.172;5.378;2022-08-21T14:58:35;26.90;99.90
7958;DHT22;4024;52.172;5.378;2022-08-21T15:01:01;26.90;99.90
7958;DHT22;4024;52.172;5.378;2022-08-21T15:03:30;26.90;99.90
7958;DHT22;4024;52.172;5.378;2022-08-21T15:05:56;26.90;99.90
7958;DHT22;4024;52.172;5.378;2022-08-21T15:08:22;26.80;99.90
7958;DHT22;4024;52.172;5.378;2022-08-21T15:10:47;26.80;99.90
7958;DHT22;4024;52.172;5.378;2022-08-21T15:13:13;26.80;99.90
7958;DHT22;4024;52.172;5.378;2022-08-21T15:15:44;26.80;99.90
7958;DHT22;4024;52.172;5.378;2022-08-21T15:18:10;26.80;99.90
7958;DHT22;4024;52.172;5.378;2022-08-21T15:20:37;26.80;99.90
7958;DHT22;4024;52.172;5.378;2022-08-21T15:23:04;26.80;99.90
7958;DHT22;4024;52.172;5.378;2022-08-21T15:25:30;26.80;99.90
7958;DHT22;4024;52.172;5.378;2022-08-21T15:27:56;26.80;99.90
7958;DHT22;4024;52.172;5.378;2022-08-21T15:30:22;26.80;99.90
7958;DHT22;4024;52.172;5.378;2022-08-21T15:32:47;26.80;99.90
7958;DHT22;4024;52.172;5.378;2022-08-21T15:35:13;26.80;99.90
7958;DHT22;4024;52.172;5.378;2022-08-21T15:37:39;26.80;99.90
7958;DHT22;4024;52.172;5.378;2022-08-21T15:40:05;26.70;99.90
7958;DHT22;4024;52.172;5.378;2022-08-21T15:42:32;26.70;99.90
7958;DHT22;4024;52.172;5.378;2022-08-21T15:44:58;26.60;99.90
7958;DHT22;4024;52.172;5.378;2022-08-21T15:47:35;26.60;99.90
7958;DHT22;4024;52.172;5.378;2022-08-21T15:50:04;26.60;99.90
7958;DHT22;4024;52.172;5.378;2022-08-21T15:52:30;26.60;99.90
7958;DHT22;4024;52.172;5.378;2022-08-21T15:54:55;26.60;99.90
7958;DHT22;4024;52.172;5.378;2022-08-21T15:57:23;26.50;99.90
7958;DHT22;4024;52.172;5.378;2022-08-21T15:59:51;26.40;99.90
7958;DHT22;4024;52.172;5.378;2022-08-21T16:02:26;26.40;99.90
7958;DHT22;4024;52.172;5.378;2022-08-21T16:04:52;26.40;99.90
7958;DHT22;4024;52.172;5.378;2022-08-21T16:07:18;26.30;99.90
7958;DHT22;4024;52.172;5.378;2022-08-21T16:09:44;26.20;99.90
7958;DHT22;4024;52.172;5.378;2022-08-21T16:12:16;26.20;99.90
7958;DHT22;4024;52.172;5.378;2022-08-21T16:14:43;26.20;99.90
7958;DHT22;4024;52.172;5.378;2022-08-21T16:17:08;26.10;99.90
7958;DHT22;4024;52.172;5.378;2022-08-21T16:19:35;26.10;99.90
7958;DHT22;4024;52.172;5.378;2022-08-21T16:22:01;26.10;99.90
7958;DHT22;4024;52.172;5.378;2022-08-21T16:24:27;26.10;99.90
7958;DHT22;4024;52.172;5.378;2022-08-21T16:26:53;26.10;99.90
7958;DHT22;4024;52.172;5.378;2022-08-21T16:29:19;26.00;99.90
7958;DHT22;4024;52.172;5.378;2022-08-21T16:31:45;26.00;99.90
7958;DHT22;4024;52.172;5.378;2022-08-21T16:34:16;26.00;99.90
7958;DHT22;4024;52.172;5.378;2022-08-21T16:36:42;26.00;99.90
7958;DHT22;4024;52.172;5.378;2022-08-21T16:39:08;26.00;99.90
7958;DHT22;4024;52.172;5.378;2022-08-21T16:41:35;26.00;99.90
7958;DHT22;4024;52.172;5.378;2022-08-21T16:44:02;26.00;99.90
7958;DHT22;4024;52.172;5.378;2022-08-21T16:46:33;25.90;99.90
7958;DHT22;4024;52.172;5.378;2022-08-21T16:48:59;25.90;99.90
7958;DHT22;4024;52.172;5.378;2022-08-21T16:51:25;25.90;99.90
7958;DHT22;4024;52.172;5.378;2022-08-21T16:53:50;25.80;99.90
7958;DHT22;4024;52.172;5.378;2022-08-21T16:56:16;25.80;99.90
7958;DHT22;4024;52.172;5.378;2022-08-21T16:58:46;25.80;99.90
7958;DHT22;4024;52.172;5.378;2022-08-21T17:01:14;25.70;99.90
7958;DHT22;4024;52.172;5.378;2022-08-21T17:03:43;25.60;99.90
7958;DHT22;4024;52.172;5.378;2022-08-21T17:06:11;25.60;99.90
7958;DHT22;4024;52.172;5.378;2022-08-21T17:08:37;25.60;99.90
7958;DHT22;4024;52.172;5.378;2022-08-21T17:11:05;25.50;99.90
7958;DHT22;4024;52.172;5.378;2022-08-21T17:13:31;25.50;99.90
7958;DHT22;4024;52.172;5.378;2022-08-21T17:15:57;25.60;99.90
7958;DHT22;4024;52.172;5.378;2022-08-21T17:18:23;25.60;99.90
7958;DHT22;4024;52.172;5.378;2022-08-21T17:20:50;25.70;99.90
7958;DHT22;4024;52.172;5.378;2022-08-21T17:23:16;25.60;99.90
7958;DHT22;4024;52.172;5.378;2022-08-21T17:25:45;25.60;99.90
7958;DHT22;4024;52.172;5.378;2022-08-21T17:28:24;25.50;99.90
7958;DHT22;4024;52.172;5.378;2022-08-21T17:30:52;25.50;99.90
7958;DHT22;4024;52.172;5.378;2022-08-21T17:33:19;25.50;99.90
7958;DHT22;4024;52.172;5.378;2022-08-21T17:35:45;25.50;99.90